Time;durP1;ratioP1;P1;durP2;ratioP2;P2;SDS_P1;SDS_P2;PMS_P1;PMS_P2;Temp;Humidity;BMP_temperature;BMP_pressure;BME280_temperature;BME280_humidity;BME280_pressure;Samples;Min_cycle;Max_cycle;Signal;HPM_P1;HPM_P2
2022/06/05 00:01:17;;;;;;;57.20;51.90;;;14.50;99.90;;;;;;4969584;28;20858;-54
2022/06/05 00:04:08;;;;;;;56.10;50.30;;;14.40;99.90;;;;;;4957900;28;20177;-54
2022/06/05 00:06:48;;;;;;;57.30;51.90;;;14.40;99.90;;;;;;4968722;28;20436;-52
2022/06/05 00:09:19;;;;;;;55.77;50.27;;;14.30;99.90;;;;;;4970748;28;20938;-57
2022/06/05 00:11:45;;;;;;;55.47;50.07;;;14.30;99.90;;;;;;4961807;28;20428;-56
2022/06/05 00:14:10;;;;;;;52.57;47.67;;;14.30;99.90;;;;;;4976773;28;20416;-56
2022/06/05 00:16:36;;;;;;;57.67;52.20;;;14.30;99.90;;;;;;4971500;28;20188;-55
2022/06/05 00:19:03;;;;;;;55.93;50.57;;;14.30;99.90;;;;;;4977069;28;20282;-57
2022/06/05 00:21:29;;;;;;;57.30;51.27;;;14.20;99.90;;;;;;4964744;28;20244;-55
2022/06/05 00:23:54;;;;;;;59.00;53.17;;;14.20;99.90;;;;;;4976896;28;20456;-57
2022/06/05 00:26:45;;;;;;;57.73;52.00;;;14.20;99.90;;;;;;4973056;28;20189;-55
2022/06/05 00:29:17;;;;;;;55.10;49.73;;;14.20;99.90;;;;;;4993792;28;20193;-56
2022/06/05 00:31:58;;;;;;;56.03;50.90;;;14.20;99.90;;;;;;4967920;28;20491;-57
2022/06/05 00:34:24;;;;;;;55.63;50.40;;;14.20;99.90;;;;;;4976817;28;20424;-54
2022/06/05 00:37:23;;;;;;;56.63;51.27;;;14.20;99.90;;;;;;4975988;28;20427;-55
2022/06/05 00:40:00;;;;;;;54.17;49.07;;;14.10;99.90;;;;;;4974892;28;20212;-55
2022/06/05 00:42:31;;;;;;;53.33;48.00;;;14.10;99.90;;;;;;4976104;28;20427;-55
2022/06/05 00:45:01;;;;;;;58.60;52.77;;;14.10;99.90;;;;;;4958895;28;20446;-52
2022/06/05 00:47:30;;;;;;;58.43;52.80;;;14.00;99.90;;;;;;4964522;28;20430;-56
2022/06/05 00:50:22;;;;;;;57.87;52.37;;;14.00;99.90;;;;;;4974408;28;20498;-54
2022/06/05 00:52:53;;;;;;;56.47;50.97;;;14.00;99.90;;;;;;4976428;28;20439;-53
2022/06/05 00:55:20;;;;;;;59.10;53.40;;;14.00;99.90;;;;;;4970290;28;20532;-55
2022/06/05 00:57:47;;;;;;;56.63;51.23;;;13.90;99.90;;;;;;4974859;28;20475;-55
2022/06/05 01:00:17;;;;;;;56.30;51.00;;;13.90;99.90;;;;;;4971234;28;20853;-56
2022/06/05 01:02:45;;;;;;;58.83;52.93;;;13.90;99.90;;;;;;4974200;28;20443;-55
2022/06/05 01:05:13;;;;;;;59.47;53.77;;;13.90;99.90;;;;;;4972452;28;20892;-55
2022/06/05 01:07:39;;;;;;;57.43;51.97;;;13.90;99.90;;;;;;4976457;28;20769;-54
2022/06/05 01:10:06;;;;;;;58.10;52.40;;;13.90;99.90;;;;;;4975501;28;20443;-55
2022/06/05 01:12:58;;;;;;;55.50;50.13;;;13.80;99.90;;;;;;4976406;28;20507;-53
2022/06/05 01:15:42;;;;;;;55.77;50.27;;;13.80;99.90;;;;;;4975447;28;20907;-53
2022/06/05 01:18:17;;;;;;;56.20;50.80;;;13.80;99.90;;;;;;4976357;28;20506;-55
2022/06/05 01:21:08;;;;;;;55.93;50.63;;;13.70;99.90;;;;;;4960680;28;20441;-54
2022/06/05 01:23:57;;;;;;;57.10;51.60;;;13.70;99.90;;;;;;4954690;28;20413;-54
2022/06/05 01:27:09;;;;;;;58.17;52.47;;;13.80;99.90;;;;;;4960946;28;20451;-53
2022/06/05 01:29:44;;;;;;;59.40;53.07;;;13.70;99.90;;;;;;4987102;28;20440;-56
2022/06/05 01:32:17;;;;;;;59.37;53.60;;;13.60;99.90;;;;;;4973275;28;20412;-56
2022/06/05 01:34:56;;;;;;;57.43;51.90;;;13.60;99.90;;;;;;4972449;28;20433;-51
2022/06/05 01:37:49;;;;;;;57.40;51.90;;;13.60;99.90;;;;;;4981941;28;20440;-54
2022/06/05 01:40:21;;;;;;;59.10;53.00;;;13.50;99.90;;;;;;4970737;28;20524;-52
2022/06/05 01:42:57;;;;;;;58.23;52.73;;;13.50;99.90;;;;;;4964285;28;20420;-54
2022/06/05 01:45:29;;;;;;;58.00;52.20;;;13.50;99.90;;;;;;4967727;28;21134;-55
2022/06/05 01:47:56;;;;;;;55.73;50.13;;;13.50;99.90;;;;;;4996726;28;20817;-54
2022/06/05 01:50:30;;;;;;;56.00;50.50;;;13.50;99.90;;;;;;4972950;28;20451;-55
2022/06/05 01:53:12;;;;;;;55.90;50.33;;;13.50;99.90;;;;;;4974605;28;20411;-56
2022/06/05 01:56:10;;;;;;;57.33;51.73;;;13.40;99.90;;;;;;4971857;28;20443;-56
2022/06/05 01:58:44;;;;;;;55.50;50.10;;;13.30;99.90;;;;;;4973125;28;20483;-57
2022/06/05 02:01:16;;;;;;;57.10;51.40;;;13.30;99.90;;;;;;4968527;28;20983;-57
2022/06/05 02:03:46;;;;;;;55.57;50.27;;;13.30;99.90;;;;;;4971995;28;20431;-56
2022/06/05 02:06:18;;;;;;;54.13;48.83;;;13.20;99.90;;;;;;4965150;28;20519;-54
2022/06/05 02:09:00;;;;;;;55.47;50.17;;;13.20;99.90;;;;;;4974188;28;20931;-55
2022/06/05 02:11:28;;;;;;;56.03;50.30;;;13.20;99.90;;;;;;4968792;28;20919;-52
2022/06/05 02:13:59;;;;;;;55.17;49.87;;;13.10;99.90;;;;;;4974131;28;20432;-55
2022/06/05 02:16:27;;;;;;;52.47;47.37;;;13.20;99.90;;;;;;4970199;28;21152;-53
2022/06/05 02:18:53;;;;;;;52.17;47.23;;;13.10;99.90;;;;;;4965704;28;20460;-51
2022/06/05 02:21:19;;;;;;;55.20;49.60;;;13.00;99.90;;;;;;4972478;28;20459;-53
2022/06/05 02:23:45;;;;;;;53.77;48.30;;;13.00;99.90;;;;;;4971311;28;20193;-55
2022/06/05 02:26:10;;;;;;;52.50;47.50;;;13.00;99.90;;;;;;4980831;28;20489;-54
2022/06/05 02:28:38;;;;;;;52.40;47.30;;;12.90;99.90;;;;;;4976477;28;20585;-51
2022/06/05 02:31:22;;;;;;;51.27;46.27;;;12.90;99.90;;;;;;4962901;28;20212;-54
2022/06/05 02:34:35;;;;;;;50.23;45.30;;;12.90;99.90;;;;;;4970934;28;20848;-56
2022/06/05 02:37:34;;;;;;;53.67;48.37;;;12.90;99.90;;;;;;4974868;28;20801;-58
2022/06/05 02:40:30;;;;;;;50.67;45.87;;;12.80;99.90;;;;;;4958855;28;20425;-54
2022/06/05 02:43:28;;;;;;;52.33;47.10;;;12.80;99.90;;;;;;4959793;28;20420;-55
2022/06/05 02:45:59;;;;;;;50.60;45.70;;;12.80;99.90;;;;;;4971633;28;20427;-53
2022/06/05 02:48:46;;;;;;;51.50;46.60;;;12.80;99.90;;;;;;4963699;28;20535;-56
2022/06/05 02:51:24;;;;;;;50.90;46.00;;;12.80;99.90;;;;;;4971532;28;20551;-57
2022/06/05 02:53:56;;;;;;;53.27;48.03;;;12.80;99.90;;;;;;4970886;28;20510;-54
2022/06/05 02:56:24;;;;;;;51.47;46.57;;;12.90;99.90;;;;;;4971631;28;20817;-55
2022/06/05 02:58:51;;;;;;;51.90;46.80;;;12.80;99.90;;;;;;4974650;28;20475;-55
2022/06/05 03:04:03;;;;;;;50.47;45.57;;;12.80;99.90;;;;;;4970720;28;20789;-52
2022/06/05 03:06:29;;;;;;;52.90;47.63;;;12.80;99.90;;;;;;4971542;28;20428;-56
2022/06/05 03:08:55;;;;;;;51.60;46.60;;;12.80;99.90;;;;;;4966926;28;20456;-55
2022/06/05 03:11:21;;;;;;;53.43;47.60;;;12.80;99.90;;;;;;4962093;28;20412;-52
2022/06/05 03:13:47;;;;;;;51.00;45.97;;;12.80;99.90;;;;;;4969443;28;20413;-56
2022/06/05 03:16:13;;;;;;;53.47;47.97;;;12.70;99.90;;;;;;4963093;28;20190;-56
2022/06/05 03:18:39;;;;;;;54.47;49.07;;;12.70;99.90;;;;;;4972103;28;20723;-56
2022/06/05 03:21:04;;;;;;;54.00;48.70;;;12.70;99.90;;;;;;4969821;28;20440;-55
2022/06/05 03:23:31;;;;;;;51.07;45.97;;;12.70;99.90;;;;;;4971059;28;20181;-52
2022/06/05 03:25:58;;;;;;;52.53;46.90;;;12.70;99.90;;;;;;4966155;28;20644;-54
2022/06/05 03:28:25;;;;;;;55.00;47.47;;;12.80;99.90;;;;;;4960881;28;20492;-55
2022/06/05 03:30:51;;;;;;;52.67;47.17;;;12.80;99.90;;;;;;4969499;28;20424;-53
2022/06/05 03:33:17;;;;;;;53.53;47.83;;;12.80;99.90;;;;;;4969809;28;20470;-57
2022/06/05 03:35:44;;;;;;;52.50;46.73;;;12.80;99.90;;;;;;4959190;28;20437;-56
2022/06/05 03:38:10;;;;;;;78.30;50.83;;;12.80;99.90;;;;;;4971147;28;20502;-57
2022/06/05 03:40:39;;;;;;;56.13;47.40;;;12.80;99.90;;;;;;4970193;28;20440;-55
2022/06/05 03:43:05;;;;;;;53.80;47.07;;;12.80;99.90;;;;;;4970842;28;20420;-54
2022/06/05 03:45:30;;;;;;;53.73;47.90;;;12.80;99.90;;;;;;4969467;28;20452;-57
2022/06/05 03:47:56;;;;;;;52.80;47.10;;;12.80;99.90;;;;;;4970502;28;20255;-53
2022/06/05 03:50:22;;;;;;;51.03;45.80;;;12.80;99.90;;;;;;4968460;28;20193;-50
2022/06/05 03:52:48;;;;;;;55.40;47.17;;;12.90;99.90;;;;;;4970804;28;20173;-55
2022/06/05 03:55:17;;;;;;;53.47;47.97;;;12.80;99.90;;;;;;4972164;28;20431;-56
2022/06/05 03:57:43;;;;;;;53.00;47.73;;;12.80;99.90;;;;;;4975356;28;20464;-55
2022/06/05 04:00:10;;;;;;;53.27;48.00;;;12.90;99.90;;;;;;4969768;28;20428;-55
2022/06/05 04:02:36;;;;;;;51.57;46.17;;;12.90;99.90;;;;;;4970387;28;20437;-54
2022/06/05 04:05:04;;;;;;;51.83;46.73;;;13.00;99.90;;;;;;4965361;28;20950;-54
2022/06/05 04:07:30;;;;;;;51.53;46.43;;;13.00;99.90;;;;;;4970742;28;20191;-51
2022/06/05 04:09:55;;;;;;;50.47;45.60;;;13.10;99.90;;;;;;4969065;28;20432;-53
2022/06/05 04:12:21;;;;;;;50.70;45.80;;;13.20;99.90;;;;;;4970667;28;20188;-55
2022/06/05 04:14:46;;;;;;;51.67;46.67;;;13.20;99.90;;;;;;4966811;28;20524;-57
2022/06/05 04:17:12;;;;;;;50.57;45.80;;;13.30;99.90;;;;;;4964530;28;20185;-55
2022/06/05 04:19:38;;;;;;;49.10;44.40;;;13.40;99.90;;;;;;4967604;28;20312;-55
2022/06/05 04:22:04;;;;;;;50.03;44.80;;;13.40;99.90;;;;;;4970591;28;20539;-55
2022/06/05 04:24:30;;;;;;;47.03;42.53;;;13.30;99.90;;;;;;4971088;28;20393;-54
2022/06/05 04:26:56;;;;;;;48.37;43.57;;;13.30;99.90;;;;;;4970690;28;20966;-53
2022/06/05 04:29:22;;;;;;;49.20;44.50;;;13.30;99.90;;;;;;4970586;28;20416;-51
2022/06/05 04:31:49;;;;;;;45.43;41.10;;;13.30;99.90;;;;;;4981594;28;20440;-54
2022/06/05 04:34:17;;;;;;;46.13;41.73;;;13.20;99.90;;;;;;4983321;28;20189;-54
2022/06/05 04:36:44;;;;;;;46.37;41.67;;;13.20;99.90;;;;;;4969460;28;20439;-55
2022/06/05 04:39:10;;;;;;;47.07;42.20;;;13.30;99.90;;;;;;4970408;28;20444;-55
2022/06/05 04:41:37;;;;;;;46.37;41.87;;;13.30;99.90;;;;;;4960740;28;20441;-53
2022/06/05 04:44:05;;;;;;;47.60;43.07;;;13.40;99.90;;;;;;4951343;28;20508;-53
2022/06/05 04:46:31;;;;;;;48.90;44.10;;;13.30;99.90;;;;;;4956216;28;20920;-56
2022/06/05 04:48:57;;;;;;;47.50;42.80;;;13.20;99.90;;;;;;4970533;28;20458;-56
2022/06/05 04:51:23;;;;;;;46.27;41.93;;;13.30;99.90;;;;;;4966246;28;20850;-54
2022/06/05 04:53:49;;;;;;;44.77;40.20;;;13.40;99.90;;;;;;4967586;28;20243;-55
2022/06/05 04:56:20;;;;;;;43.50;39.40;;;13.60;99.90;;;;;;4968344;28;20499;-56
2022/06/05 04:58:46;;;;;;;43.27;39.00;;;13.60;99.90;;;;;;4965875;28;20514;-56
2022/06/05 05:01:17;;;;;;;43.30;39.20;;;13.70;99.90;;;;;;4966921;28;20460;-54
2022/06/05 05:03:44;;;;;;;41.40;37.47;;;13.80;99.90;;;;;;4973645;28;20207;-56
2022/06/05 05:06:10;;;;;;;41.73;37.73;;;13.70;99.90;;;;;;4971863;28;20420;-57
2022/06/05 05:08:36;;;;;;;41.03;37.03;;;13.80;99.90;;;;;;4968503;28;20416;-55
2022/06/05 05:11:02;;;;;;;40.80;37.00;;;13.80;99.90;;;;;;4973804;28;20990;-54
2022/06/05 05:13:27;;;;;;;43.13;39.17;;;13.90;99.90;;;;;;4958532;28;20527;-57
2022/06/05 05:15:55;;;;;;;41.17;37.47;;;13.80;99.90;;;;;;4972787;28;20184;-56
2022/06/05 05:18:21;;;;;;;38.73;35.20;;;14.00;99.90;;;;;;4973468;28;20208;-53
2022/06/05 05:20:47;;;;;;;38.17;34.70;;;14.20;99.90;;;;;;4972281;28;20436;-55
2022/06/05 05:23:13;;;;;;;39.67;35.97;;;14.40;99.90;;;;;;4973517;28;20482;-58
2022/06/05 05:25:38;;;;;;;38.50;35.03;;;14.60;99.90;;;;;;4978259;28;20196;-57
2022/06/05 05:28:06;;;;;;;36.60;33.40;;;14.80;99.90;;;;;;4967159;28;20415;-56
2022/06/05 05:30:32;;;;;;;37.30;33.93;;;14.90;99.90;;;;;;4973552;28;21138;-57
2022/06/05 05:32:58;;;;;;;36.60;33.30;;;15.00;99.90;;;;;;4972493;28;20431;-57
2022/06/05 05:35:24;;;;;;;33.90;30.97;;;15.10;99.90;;;;;;4973206;28;20919;-54
2022/06/05 05:37:50;;;;;;;34.40;31.50;;;15.10;99.90;;;;;;4971153;28;20185;-58
2022/06/05 05:43:00;;;;;;;34.47;31.37;;;15.10;99.90;;;;;;4971919;28;20211;-58
2022/06/05 05:45:25;;;;;;;33.30;30.30;;;15.30;99.90;;;;;;4973137;28;20441;-55
2022/06/05 05:47:51;;;;;;;33.17;30.27;;;15.30;99.90;;;;;;4972237;28;20232;-55
2022/06/05 05:50:16;;;;;;;34.80;31.70;;;15.20;99.90;;;;;;4972982;28;20235;-55
2022/06/05 05:52:44;;;;;;;35.20;31.93;;;15.20;99.90;;;;;;4967135;28;20236;-56
2022/06/05 05:55:16;;;;;;;34.00;31.00;;;15.50;99.90;;;;;;4977308;28;20185;-58
2022/06/05 05:57:42;;;;;;;33.87;30.97;;;15.60;99.90;;;;;;4969745;28;20460;-55
2022/06/05 06:00:13;;;;;;;34.77;31.57;;;15.80;99.90;;;;;;4968122;28;20952;-56
2022/06/05 06:02:39;;;;;;;34.10;31.10;;;15.90;99.90;;;;;;4971354;28;20783;-53
2022/06/05 06:05:06;;;;;;;32.73;29.53;;;16.00;99.90;;;;;;4972749;28;20969;-58
2022/06/05 06:07:32;;;;;;;33.60;30.60;;;16.00;99.90;;;;;;4972588;28;21222;-58
2022/06/05 06:09:57;;;;;;;33.80;30.77;;;16.10;99.90;;;;;;4967895;28;20452;-54
2022/06/05 06:12:24;;;;;;;34.67;31.57;;;16.00;99.90;;;;;;4972397;28;20496;-56
2022/06/05 06:14:50;;;;;;;34.60;31.50;;;16.10;99.90;;;;;;4971155;28;20201;-54
2022/06/05 06:17:16;;;;;;;36.87;33.60;;;16.00;99.90;;;;;;4972619;28;20451;-58
2022/06/05 06:19:41;;;;;;;35.87;32.60;;;15.80;99.90;;;;;;4971141;28;20468;-57
2022/06/05 06:22:07;;;;;;;35.57;32.47;;;15.70;99.90;;;;;;4972137;28;20260;-58
2022/06/05 06:24:33;;;;;;;35.73;32.63;;;15.90;99.90;;;;;;4971703;28;20302;-58
2022/06/05 06:26:59;;;;;;;35.27;32.13;;;15.90;99.90;;;;;;4972465;28;20159;-54
2022/06/05 06:29:24;;;;;;;36.27;32.57;;;16.00;99.90;;;;;;4962233;28;20456;-57
2022/06/05 06:31:50;;;;;;;35.77;32.67;;;16.20;99.90;;;;;;4972792;28;20186;-58
2022/06/05 06:34:16;;;;;;;36.07;32.97;;;16.30;99.90;;;;;;4984232;28;20203;-56
2022/06/05 06:36:41;;;;;;;34.00;31.00;;;16.40;99.90;;;;;;4972383;28;20167;-57
2022/06/05 06:39:07;;;;;;;33.53;30.63;;;16.40;99.90;;;;;;4970978;28;20214;-59
2022/06/05 06:41:33;;;;;;;36.23;33.03;;;16.50;99.90;;;;;;4972079;28;20180;-56
2022/06/05 06:43:59;;;;;;;35.70;32.50;;;16.50;99.90;;;;;;4967572;28;20187;-57
2022/06/05 06:46:24;;;;;;;34.27;31.43;;;16.60;99.90;;;;;;4981262;28;20959;-57
2022/06/05 06:48:51;;;;;;;36.30;33.00;;;16.80;99.90;;;;;;4990145;28;20176;-59
2022/06/05 06:51:17;;;;;;;34.30;31.40;;;16.90;99.90;;;;;;4972056;28;20242;-53
2022/06/05 06:53:43;;;;;;;35.03;31.97;;;17.00;99.90;;;;;;4971350;28;20419;-56
2022/06/05 06:56:17;;;;;;;32.57;29.90;;;17.10;99.90;;;;;;4967583;28;20262;-56
2022/06/05 06:58:44;;;;;;;33.47;30.70;;;17.20;99.90;;;;;;4968977;28;20486;-55
2022/06/05 07:01:10;;;;;;;32.43;29.43;;;17.30;99.90;;;;;;4969607;28;20500;-54
2022/06/05 07:03:37;;;;;;;30.37;27.93;;;17.50;99.90;;;;;;4980519;28;20419;-56
2022/06/05 07:06:04;;;;;;;30.07;27.70;;;17.70;97.30;;;;;;4976007;28;20438;-56
2022/06/05 07:08:30;;;;;;;28.43;26.20;;;17.90;93.00;;;;;;4971242;28;20567;-53
2022/06/05 07:10:56;;;;;;;30.00;27.60;;;18.00;87.10;;;;;;4970505;28;20440;-57
2022/06/05 07:13:22;;;;;;;28.73;26.50;;;18.20;68.10;;;;;;4960710;28;21225;-57
2022/06/05 07:15:47;;;;;;;27.20;25.10;;;18.30;61.50;;;;;;4954954;28;20414;-56
2022/06/05 07:18:13;;;;;;;27.53;25.23;;;18.50;52.60;;;;;;4984880;28;20874;-57
2022/06/05 07:20:41;;;;;;;26.63;24.40;;;18.70;40.20;;;;;;4955226;28;20181;-55
2022/06/05 07:23:07;;;;;;;23.90;22.00;;;18.90;22.10;;;;;;4955219;28;20192;-57
2022/06/05 07:25:35;;;;;;;23.13;21.43;;;19.10;8.10;;;;;;4968290;28;20965;-58
2022/06/05 07:28:00;;;;;;;22.77;20.77;;;19.30;1.00;;;;;;4971157;28;20189;-57
2022/06/05 07:30:26;;;;;;;21.13;19.53;;;19.50;1.00;;;;;;4994754;28;20437;-57
2022/06/05 07:32:53;;;;;;;20.70;19.00;;;19.70;1.00;;;;;;4970388;28;20511;-55
2022/06/05 07:35:18;;;;;;;19.67;18.17;;;19.90;1.00;;;;;;4970181;28;20636;-56
2022/06/05 07:37:44;;;;;;;19.47;17.90;;;20.20;1.00;;;;;;4975401;28;20502;-56
2022/06/05 07:40:10;;;;;;;18.93;17.53;;;20.40;1.00;;;;;;4969651;28;20588;-56
2022/06/05 07:42:41;;;;;;;17.53;16.33;;;20.60;1.00;;;;;;4970462;28;20192;-58
2022/06/05 07:45:08;;;;;;;15.60;14.37;;;20.80;1.00;;;;;;4967207;28;20441;-57
2022/06/05 07:47:34;;;;;;;15.13;14.13;;;21.10;99.90;;;;;;4966981;28;20470;-57
2022/06/05 07:49:59;;;;;;;14.83;13.83;;;21.30;99.90;;;;;;4970032;28;20458;-57
2022/06/05 07:55:11;;;;;;;13.40;12.33;;;21.80;34.80;;;;;;4964432;28;20886;-58
2022/06/05 07:57:40;;;;;;;12.90;12.00;;;22.00;1.00;;;;;;4964493;28;21108;-57
2022/06/05 08:00:07;;;;;;;14.17;13.17;;;22.20;99.90;;;;;;4968956;28;20561;-53
2022/06/05 08:02:34;;;;;;;14.03;13.10;;;22.30;99.90;;;;;;4968704;28;20456;-57
2022/06/05 08:05:02;;;;;;;13.50;12.60;;;22.50;99.90;;;;;;4970578;28;20481;-54
2022/06/05 08:07:29;;;;;;;14.03;13.10;;;22.60;1.00;;;;;;4969643;28;20469;-57
2022/06/05 08:09:55;;;;;;;12.60;11.80;;;22.70;99.90;;;;;;4966105;28;20433;-57
2022/06/05 08:12:23;;;;;;;13.83;12.93;;;22.80;99.90;;;;;;4960799;28;20452;-58
2022/06/05 08:14:51;;;;;;;13.93;12.97;;;22.90;99.90;;;;;;4968730;28;20424;-57
2022/06/05 08:17:21;;;;;;;13.30;12.40;;;23.20;1.00;;;;;;4968530;28;20446;-58
2022/06/05 08:19:47;;;;;;;13.50;12.40;;;23.30;99.90;;;;;;4970104;28;20464;-56
2022/06/05 08:22:16;;;;;;;12.90;11.97;;;23.50;1.00;;;;;;4969334;28;20923;-57
2022/06/05 08:24:42;;;;;;;12.73;11.83;;;23.60;99.90;;;;;;4970219;28;20420;-58
2022/06/05 08:27:10;;;;;;;13.67;12.80;;;23.80;99.90;;;;;;4963339;28;20433;-57
2022/06/05 08:29:36;;;;;;;12.93;12.00;;;23.90;99.90;;;;;;4968739;28;20610;-55
2022/06/05 08:32:01;;;;;;;12.67;11.77;;;24.10;99.90;;;;;;4968438;28;21509;-57
2022/06/05 08:34:27;;;;;;;11.90;11.10;;;24.40;99.90;;;;;;4974205;28;20486;-56
2022/06/05 08:41:27;;;;;;;13.53;12.70;;;24.50;99.90;;;;;;4972783;28;20189;-57
2022/06/05 08:42:29;;;;;;;13.17;12.27;;;24.70;1.00;;;;;;4971742;28;20444;-57
2022/06/05 08:45:07;;;;;;;12.83;12.03;;;25.00;1.00;;;;;;4958510;28;20425;-57
2022/06/05 08:48:05;;;;;;;13.63;12.80;;;25.20;1.00;;;;;;4972688;28;20754;-57
2022/06/05 08:50:45;;;;;;;13.30;12.43;;;25.40;1.00;;;;;;4973419;28;20426;-57
2022/06/05 08:53:32;;;;;;;13.83;12.93;;;25.50;1.00;;;;;;4970988;28;20443;-57
2022/06/05 08:55:59;;;;;;;13.17;12.30;;;25.50;1.00;;;;;;4970153;28;20892;-57
2022/06/05 08:58:48;;;;;;;12.63;11.93;;;25.70;1.00;;;;;;4969861;28;20478;-55
2022/06/05 09:01:25;;;;;;;13.77;12.70;;;26.00;1.00;;;;;;4973156;28;20431;-57
2022/06/05 09:04:16;;;;;;;13.07;12.17;;;26.40;1.00;;;;;;4972277;28;20445;-58
2022/06/05 09:06:46;;;;;;;13.03;11.93;;;26.70;1.00;;;;;;4965464;28;20442;-57
2022/06/05 09:09:44;;;;;;;12.17;11.20;;;27.00;1.00;;;;;;4971982;28;20799;-58
2022/06/05 09:12:18;;;;;;;12.40;11.60;;;27.50;99.90;;;;;;4962354;28;20478;-57
2022/06/05 09:14:51;;;;;;;12.63;11.63;;;27.90;99.90;;;;;;4970032;28;20444;-58
2022/06/05 09:17:19;;;;;;;13.03;12.23;;;28.00;99.90;;;;;;4972967;28;20453;-58
2022/06/05 09:19:47;;;;;;;12.53;11.80;;;27.90;99.90;;;;;;4972842;28;20468;-56
2022/06/05 09:22:30;;;;;;;13.53;12.57;;;28.40;99.90;;;;;;5003009;28;20444;-58
2022/06/05 09:25:25;;;;;;;12.03;11.33;;;28.90;99.90;;;;;;4971625;28;20432;-58
2022/06/05 09:28:13;;;;;;;11.80;11.00;;;29.40;99.90;;;;;;4972841;28;20840;-58
2022/06/05 09:30:49;;;;;;;12.13;11.33;;;30.10;99.90;;;;;;4962638;28;20785;-57
2022/06/05 09:33:22;;;;;;;11.67;10.97;;;30.50;99.90;;;;;;4974509;28;21007;-58
2022/06/05 09:35:59;;;;;;;12.60;11.90;;;30.60;99.90;;;;;;4962245;28;20441;-59
2022/06/05 09:38:29;;;;;;;12.30;11.60;;;31.00;99.90;;;;;;4970696;28;20542;-58
2022/06/05 09:41:05;;;;;;;12.20;11.50;;;31.20;99.90;;;;;;4999235;28;20440;-58
2022/06/05 09:43:40;;;;;;;12.20;11.40;;;31.20;99.90;;;;;;4975130;28;20957;-58
2022/06/05 09:46:14;;;;;;;11.40;10.80;;;31.40;99.90;;;;;;4973079;28;20432;-58
2022/06/05 09:48:57;;;;;;;11.60;11.00;;;31.30;99.90;;;;;;4972200;28;20415;-58
2022/06/05 09:51:23;;;;;;;12.10;11.40;;;31.70;99.90;;;;;;4971410;28;20428;-57
2022/06/05 09:54:21;;;;;;;11.50;10.80;;;32.40;99.90;;;;;;4972071;28;20413;-57
2022/06/05 10:00:00;;;;;;;11.20;10.60;;;33.60;99.90;;;;;;4972043;28;20471;-58
2022/06/05 10:02:26;;;;;;;11.50;10.80;;;34.00;99.90;;;;;;4959819;28;20437;-58
2022/06/05 10:04:52;;;;;;;11.07;10.47;;;34.60;99.90;;;;;;4966668;28;20424;-58
2022/06/05 10:07:27;;;;;;;11.40;10.80;;;35.00;99.90;;;;;;4970927;28;20494;-58
2022/06/05 10:09:53;;;;;;;11.23;10.63;;;35.10;99.90;;;;;;4971757;28;20424;-58
2022/06/05 10:12:27;;;;;;;11.30;10.70;;;35.30;99.90;;;;;;4967243;28;20443;-54
2022/06/05 10:14:56;;;;;;;11.73;11.03;;;35.30;99.90;;;;;;4971581;28;20448;-58
2022/06/05 10:17:30;;;;;;;11.80;11.13;;;34.80;99.90;;;;;;4970909;28;21263;-58
2022/06/05 10:20:12;;;;;;;10.97;10.40;;;34.80;99.90;;;;;;4971367;28;20467;-58
2022/06/05 10:22:49;;;;;;;10.40;9.90;;;35.10;99.90;;;;;;4969677;28;20502;-57
2022/06/05 10:25:55;;;;;;;10.93;10.40;;;35.60;99.90;;;;;;4969793;28;20809;-59
2022/06/05 10:28:25;;;;;;;12.10;11.47;;;35.90;99.90;;;;;;4970400;28;20651;-58
2022/06/05 10:30:58;;;;;;;11.80;11.20;;;35.90;99.90;;;;;;4971190;28;20416;-59
2022/06/05 10:33:27;;;;;;;11.83;11.23;;;36.10;99.90;;;;;;4966722;28;20791;-58
2022/06/05 10:36:00;;;;;;;13.07;12.37;;;35.90;99.90;;;;;;4961143;28;20925;-57
2022/06/05 10:38:52;;;;;;;12.20;11.30;;;35.60;99.90;;;;;;4968780;28;20464;-58
2022/06/05 10:41:36;;;;;;;11.20;10.50;;;35.60;99.90;;;;;;4967440;28;20420;-59
2022/06/05 10:44:38;;;;;;;10.33;9.83;;;35.90;99.90;;;;;;4972291;28;20449;-58
2022/06/05 10:47:10;;;;;;;11.50;10.73;;;36.10;99.90;;;;;;4973254;28;20541;-58
2022/06/05 10:49:54;;;;;;;10.47;9.87;;;36.40;99.90;;;;;;4970333;28;20432;-57
2022/06/05 10:52:36;;;;;;;10.97;10.37;;;36.50;99.90;;;;;;4970370;28;20486;-58
2022/06/05 10:55:20;;;;;;;9.87;9.37;;;37.00;99.90;;;;;;4962260;28;20480;-59
2022/06/05 10:57:52;;;;;;;10.10;9.60;;;37.30;99.90;;;;;;4958609;28;20482;-58
2022/06/05 11:00:18;;;;;;;10.50;9.93;;;37.40;99.90;;;;;;4960408;28;20575;-58
2022/06/05 11:03:09;;;;;;;11.00;10.40;;;37.00;99.90;;;;;;4970823;28;20652;-58
2022/06/05 11:06:14;;;;;;;10.50;9.90;;;37.20;99.90;;;;;;4963479;28;20182;-58
2022/06/05 11:09:02;;;;;;;10.97;10.43;;;36.80;99.90;;;;;;4959437;28;20531;-59
2022/06/05 11:14:32;;;;;;;11.00;10.37;;;37.80;99.90;;;;;;4966637;28;20447;-59
2022/06/05 11:17:44;;;;;;;10.50;10.00;;;38.10;99.90;;;;;;4970631;28;20424;-58
2022/06/05 11:20:10;;;;;;;11.47;10.80;;;38.10;99.90;;;;;;4969761;28;20467;-59
2022/06/05 11:22:40;;;;;;;11.17;10.37;;;38.30;99.90;;;;;;4970525;28;20935;-59
2022/06/05 11:25:11;;;;;;;10.70;10.10;;;38.60;99.90;;;;;;4967775;28;20185;-58
2022/06/05 11:27:46;;;;;;;10.20;9.70;;;38.50;99.90;;;;;;4958809;28;20507;-59
2022/06/05 11:30:20;;;;;;;10.23;9.67;;;38.60;99.90;;;;;;4965925;28;20511;-58
2022/06/05 11:33:12;;;;;;;10.70;10.07;;;38.70;99.90;;;;;;4970324;28;20427;-59
2022/06/05 11:36:17;;;;;;;10.30;9.80;;;39.20;99.90;;;;;;4959757;28;20480;-59
2022/06/05 11:39:05;;;;;;;10.60;10.10;;;39.10;99.90;;;;;;4964143;28;20424;-59
2022/06/05 11:42:11;;;;;;;10.57;10.07;;;39.30;99.90;;;;;;4969526;28;20447;-59
2022/06/05 11:44:40;;;;;;;10.40;9.90;;;39.00;99.90;;;;;;4964348;28;20927;-59
2022/06/05 11:47:25;;;;;;;10.67;10.17;;;38.70;99.90;;;;;;4978114;28;20443;-59
2022/06/05 11:50:15;;;;;;;10.70;10.17;;;38.80;99.90;;;;;;4970307;28;20522;-59
2022/06/05 11:52:53;;;;;;;9.90;9.40;;;38.50;99.90;;;;;;4959393;28;20425;-58
2022/06/05 11:55:30;;;;;;;10.77;10.27;;;37.90;99.90;;;;;;4969261;28;20408;-59
2022/06/05 11:58:04;;;;;;;10.90;10.40;;;37.50;99.90;;;;;;4969901;28;20456;-59
2022/06/05 12:00:36;;;;;;;10.50;9.90;;;37.40;99.90;;;;;;4968699;28;20966;-58
2022/06/05 12:03:15;;;;;;;10.63;10.03;;;37.20;99.90;;;;;;4969518;28;20415;-58
2022/06/05 12:05:44;;;;;;;10.70;10.20;;;37.60;99.90;;;;;;4965968;28;20475;-58
2022/06/05 12:08:14;;;;;;;10.63;10.13;;;37.40;99.90;;;;;;4971127;28;20440;-59
2022/06/05 12:10:54;;;;;;;10.60;10.10;;;37.70;99.90;;;;;;4967892;28;20424;-57
2022/06/05 12:13:44;;;;;;;10.70;10.10;;;37.80;99.90;;;;;;4967816;28;20515;-58
2022/06/05 12:16:21;;;;;;;11.00;10.50;;;38.20;99.90;;;;;;4968148;28;20459;-57
2022/06/05 12:18:49;;;;;;;10.63;10.03;;;38.00;99.90;;;;;;4958630;28;20515;-58
2022/06/05 12:21:24;;;;;;;10.70;10.10;;;37.70;99.90;;;;;;4968981;28;20412;-58
2022/06/05 12:24:10;;;;;;;11.00;10.30;;;37.60;99.90;;;;;;4969687;28;20590;-58
2022/06/05 12:26:59;;;;;;;10.87;10.37;;;37.00;99.90;;;;;;4966326;28;20511;-59
2022/06/05 12:29:35;;;;;;;10.30;9.77;;;37.10;99.90;;;;;;4969469;28;20483;-58
2022/06/05 12:32:13;;;;;;;10.73;10.23;;;37.50;99.90;;;;;;4965041;28;20796;-59
2022/06/05 12:34:54;;;;;;;11.03;10.43;;;37.50;99.90;;;;;;4969708;28;20435;-59
2022/06/05 12:37:43;;;;;;;10.50;9.70;;;36.70;99.90;;;;;;4966046;28;20440;-60
2022/06/05 12:40:24;;;;;;;10.43;9.80;;;36.80;99.90;;;;;;4969479;28;20486;-59
2022/06/05 12:43:01;;;;;;;10.00;9.50;;;36.80;99.90;;;;;;4968355;28;20434;-58
2022/06/05 12:45:30;;;;;;;10.40;9.60;;;37.20;99.90;;;;;;4967188;28;20455;-59
2022/06/05 12:48:23;;;;;;;9.83;9.20;;;37.40;99.90;;;;;;4961167;28;20433;-59
2022/06/05 12:51:03;;;;;;;9.90;9.20;;;37.50;99.90;;;;;;4969389;28;20451;-59
2022/06/05 12:53:35;;;;;;;9.17;8.67;;;37.30;99.90;;;;;;4965116;28;20455;-59
2022/06/05 12:56:19;;;;;;;10.20;9.60;;;37.00;99.90;;;;;;4969387;28;20479;-59
2022/06/05 12:59:22;;;;;;;9.30;8.90;;;36.50;99.90;;;;;;4967396;28;20439;-59
2022/06/05 13:02:05;;;;;;;9.93;9.43;;;35.90;99.90;;;;;;4964564;28;20454;-59
2022/06/05 13:04:36;;;;;;;9.33;8.83;;;35.60;99.90;;;;;;4967924;28;20424;-59
2022/06/05 13:07:11;;;;;;;9.77;9.27;;;35.90;99.90;;;;;;4967305;28;20476;-59
2022/06/05 13:09:44;;;;;;;9.70;9.10;;;36.40;99.90;;;;;;4968182;28;20470;-59
2022/06/05 13:12:34;;;;;;;10.20;9.70;;;36.10;99.90;;;;;;4969104;28;20452;-59
2022/06/05 13:15:21;;;;;;;10.03;9.43;;;35.90;99.90;;;;;;4964814;28;20966;-59